sensor_id;sensor_type;location;lat;lon;timestamp;pressure;altitude;pressure_sealevel;temperature;humidity
10978;BME280;5542;48.272;10.794;2023-02-17T00:01:10;96569.88;;;7.78;53.84
10978;BME280;5542;48.272;10.794;2023-02-17T00:03:37;96563.03;;;7.77;53.76
10978;BME280;5542;48.272;10.794;2023-02-17T00:06:05;96568.91;;;7.79;54.04
10978;BME280;5542;48.272;10.794;2023-02-17T00:08:32;96562.59;;;7.73;54.15
10978;BME280;5542;48.272;10.794;2023-02-17T00:10:59;96572.22;;;7.66;54.34
10978;BME280;5542;48.272;10.794;2023-02-17T00:13:26;96572.16;;;7.59;55.18
10978;BME280;5542;48.272;10.794;2023-02-17T00:15:52;96569.72;;;7.58;54.82
10978;BME280;5542;48.272;10.794;2023-02-17T00:18:20;96569.13;;;7.56;55.07
10978;BME280;5542;48.272;10.794;2023-02-17T00:20:47;96569.09;;;7.77;54.46
10978;BME280;5542;48.272;10.794;2023-02-17T00:23:14;96568.72;;;7.59;55.03
10978;BME280;5542;48.272;10.794;2023-02-17T00:25:41;96563.72;;;7.64;55.10
10978;BME280;5542;48.272;10.794;2023-02-17T00:28:07;96565.97;;;7.67;55.04
10978;BME280;5542;48.272;10.794;2023-02-17T00:30:36;96566.47;;;7.77;54.63
10978;BME280;5542;48.272;10.794;2023-02-17T00:33:02;96568.59;;;7.67;55.06
10978;BME280;5542;48.272;10.794;2023-02-17T00:35:30;96569.03;;;7.70;54.84
10978;BME280;5542;48.272;10.794;2023-02-17T00:37:57;96568.66;;;7.74;55.12
10978;BME280;5542;48.272;10.794;2023-02-17T00:40:23;96571.47;;;7.72;54.96
10978;BME280;5542;48.272;10.794;2023-02-17T00:42:50;96567.28;;;7.78;54.75
10978;BME280;5542;48.272;10.794;2023-02-17T00:45:19;96575.94;;;7.78;54.73
10978;BME280;5542;48.272;10.794;2023-02-17T00:47:45;96574.19;;;7.85;54.32
10978;BME280;5542;48.272;10.794;2023-02-17T00:50:12;96570.84;;;7.70;54.75
10978;BME280;5542;48.272;10.794;2023-02-17T00:52:40;96568.06;;;7.78;54.99
10978;BME280;5542;48.272;10.794;2023-02-17T00:55:07;96564.03;;;7.76;54.68
10978;BME280;5542;48.272;10.794;2023-02-17T00:57:33;96563.09;;;7.83;54.23
10978;BME280;5542;48.272;10.794;2023-02-17T01:00:00;96566.66;;;7.76;54.41
10978;BME280;5542;48.272;10.794;2023-02-17T01:02:27;96566.91;;;7.81;54.34
10978;BME280;5542;48.272;10.794;2023-02-17T01:04:53;96570.47;;;8.01;53.38
10978;BME280;5542;48.272;10.794;2023-02-17T01:07:20;96563.66;;;8.07;53.13
10978;BME280;5542;48.272;10.794;2023-02-17T01:09:48;96568.28;;;8.05;53.11
10978;BME280;5542;48.272;10.794;2023-02-17T01:12:14;96565.75;;;7.90;54.06
10978;BME280;5542;48.272;10.794;2023-02-17T01:14:41;96555.53;;;7.95;53.93
10978;BME280;5542;48.272;10.794;2023-02-17T01:17:07;96561.94;;;7.92;53.64
10978;BME280;5542;48.272;10.794;2023-02-17T01:19:34;96575.88;;;7.93;53.95
10978;BME280;5542;48.272;10.794;2023-02-17T01:22:01;96576.81;;;7.85;54.32
10978;BME280;5542;48.272;10.794;2023-02-17T01:24:27;96574.19;;;7.85;54.46
10978;BME280;5542;48.272;10.794;2023-02-17T01:26:55;96567.81;;;7.94;54.18
10978;BME280;5542;48.272;10.794;2023-02-17T01:29:22;96573.50;;;8.33;52.19
10978;BME280;5542;48.272;10.794;2023-02-17T01:31:49;96567.72;;;8.44;51.70
10978;BME280;5542;48.272;10.794;2023-02-17T01:34:15;96561.56;;;8.30;52.06
10978;BME280;5542;48.272;10.794;2023-02-17T01:36:42;96570.31;;;8.37;52.70
10978;BME280;5542;48.272;10.794;2023-02-17T01:39:11;96562.22;;;8.32;53.46
10978;BME280;5542;48.272;10.794;2023-02-17T01:41:38;96559.72;;;8.24;53.87
10978;BME280;5542;48.272;10.794;2023-02-17T01:44:13;96556.97;;;8.32;53.64
10978;BME280;5542;48.272;10.794;2023-02-17T01:46:41;96561.66;;;8.37;53.51
10978;BME280;5542;48.272;10.794;2023-02-17T01:49:16;96553.81;;;8.43;53.05
10978;BME280;5542;48.272;10.794;2023-02-17T01:51:46;96549.34;;;8.37;52.77
10978;BME280;5542;48.272;10.794;2023-02-17T01:54:16;96550.63;;;8.48;52.34
10978;BME280;5542;48.272;10.794;2023-02-17T01:56:47;96549.97;;;8.39;52.71
10978;BME280;5542;48.272;10.794;2023-02-17T01:59:18;96542.09;;;8.39;52.73
10978;BME280;5542;48.272;10.794;2023-02-17T02:01:46;96546.81;;;8.51;52.63
10978;BME280;5542;48.272;10.794;2023-02-17T02:04:14;96541.94;;;8.48;53.05
10978;BME280;5542;48.272;10.794;2023-02-17T02:06:44;96539.91;;;8.50;52.80
10978;BME280;5542;48.272;10.794;2023-02-17T02:09:14;96532.06;;;8.50;52.55
10978;BME280;5542;48.272;10.794;2023-02-17T02:11:42;96530.66;;;8.47;52.80
10978;BME280;5542;48.272;10.794;2023-02-17T02:14:09;96534.94;;;8.61;52.00
10978;BME280;5542;48.272;10.794;2023-02-17T02:16:44;96528.03;;;8.54;52.68
10978;BME280;5542;48.272;10.794;2023-02-17T02:19:33;96518.78;;;8.58;52.58
10978;BME280;5542;48.272;10.794;2023-02-17T02:22:31;96515.34;;;8.51;53.37
10978;BME280;5542;48.272;10.794;2023-02-17T02:25:13;96521.66;;;8.69;52.00
10978;BME280;5542;48.272;10.794;2023-02-17T02:27:49;96511.78;;;8.71;51.82
10978;BME280;5542;48.272;10.794;2023-02-17T02:30:32;96496.22;;;8.63;51.43
10978;BME280;5542;48.272;10.794;2023-02-17T02:33:07;96507.13;;;8.60;51.61
10978;BME280;5542;48.272;10.794;2023-02-17T02:35:45;96497.06;;;8.70;50.87
10978;BME280;5542;48.272;10.794;2023-02-17T02:38:17;96496.25;;;8.70;50.42
10978;BME280;5542;48.272;10.794;2023-02-17T02:40:47;96489.56;;;8.67;49.99
10978;BME280;5542;48.272;10.794;2023-02-17T02:43:16;96496.41;;;8.55;50.74
10978;BME280;5542;48.272;10.794;2023-02-17T02:45:42;96488.16;;;8.65;49.57
10978;BME280;5542;48.272;10.794;2023-02-17T02:48:10;96483.72;;;8.65;49.49
10978;BME280;5542;48.272;10.794;2023-02-17T02:50:53;96492.56;;;8.58;50.16
10978;BME280;5542;48.272;10.794;2023-02-17T02:53:44;96490.97;;;8.57;49.57
10978;BME280;5542;48.272;10.794;2023-02-17T02:56:24;96495.59;;;8.55;49.94
10978;BME280;5542;48.272;10.794;2023-02-17T02:58:57;96485.72;;;8.57;49.81
10978;BME280;5542;48.272;10.794;2023-02-17T03:01:30;96487.16;;;8.59;49.40
10978;BME280;5542;48.272;10.794;2023-02-17T03:04:07;96494.22;;;8.65;49.16
10978;BME280;5542;48.272;10.794;2023-02-17T03:06:40;96486.94;;;8.67;49.02
10978;BME280;5542;48.272;10.794;2023-02-17T03:09:11;96490.41;;;8.75;48.53
10978;BME280;5542;48.272;10.794;2023-02-17T03:11:38;96486.13;;;8.60;49.24
10978;BME280;5542;48.272;10.794;2023-02-17T03:14:08;96474.25;;;8.71;48.64
10978;BME280;5542;48.272;10.794;2023-02-17T03:16:36;96473.88;;;8.74;48.75
10978;BME280;5542;48.272;10.794;2023-02-17T03:19:05;96474.47;;;8.69;49.05
10978;BME280;5542;48.272;10.794;2023-02-17T03:21:35;96466.59;;;8.76;48.71
10978;BME280;5542;48.272;10.794;2023-02-17T03:24:04;96470.25;;;8.82;48.59
10978;BME280;5542;48.272;10.794;2023-02-17T03:26:30;96466.38;;;8.71;48.91
10978;BME280;5542;48.272;10.794;2023-02-17T03:28:57;96461.56;;;8.75;48.65
10978;BME280;5542;48.272;10.794;2023-02-17T03:31:24;96458.72;;;8.69;49.06
10978;BME280;5542;48.272;10.794;2023-02-17T03:33:50;96460.34;;;8.77;48.37
10978;BME280;5542;48.272;10.794;2023-02-17T03:36:18;96460.13;;;8.65;49.30
10978;BME280;5542;48.272;10.794;2023-02-17T03:38:45;96454.47;;;8.68;48.76
10978;BME280;5542;48.272;10.794;2023-02-17T03:41:11;96453.88;;;8.66;48.90
10978;BME280;5542;48.272;10.794;2023-02-17T03:43:38;96453.09;;;8.79;48.64
10978;BME280;5542;48.272;10.794;2023-02-17T03:46:09;96456.53;;;8.80;49.19
10978;BME280;5542;48.272;10.794;2023-02-17T03:48:36;96449.84;;;8.77;48.99
10978;BME280;5542;48.272;10.794;2023-02-17T03:51:09;96447.25;;;8.90;48.53
10978;BME280;5542;48.272;10.794;2023-02-17T03:53:38;96450.69;;;8.84;48.82
10978;BME280;5542;48.272;10.794;2023-02-17T03:56:05;96456.34;;;8.88;49.11
10978;BME280;5542;48.272;10.794;2023-02-17T03:58:31;96444.81;;;8.76;49.11
10978;BME280;5542;48.272;10.794;2023-02-17T04:00:58;96447.47;;;8.89;49.15
10978;BME280;5542;48.272;10.794;2023-02-17T04:03:24;96446.44;;;8.77;49.35
10978;BME280;5542;48.272;10.794;2023-02-17T04:05:51;96452.72;;;8.89;48.81
10978;BME280;5542;48.272;10.794;2023-02-17T04:08:18;96447.84;;;8.86;49.05
10978;BME280;5542;48.272;10.794;2023-02-17T04:10:50;96446.25;;;8.85;49.37
10978;BME280;5542;48.272;10.794;2023-02-17T04:13:17;96448.28;;;8.96;49.01
10978;BME280;5542;48.272;10.794;2023-02-17T04:15:43;96447.25;;;8.90;49.44
10978;BME280;5542;48.272;10.794;2023-02-17T04:18:10;96449.50;;;8.93;49.41
10978;BME280;5542;48.272;10.794;2023-02-17T04:20:36;96443.66;;;9.05;49.11
10978;BME280;5542;48.272;10.794;2023-02-17T04:23:03;96447.06;;;8.98;48.84
10978;BME280;5542;48.272;10.794;2023-02-17T04:25:32;96443.03;;;8.96;49.44
10978;BME280;5542;48.272;10.794;2023-02-17T04:28:00;96451.09;;;8.94;49.92
10978;BME280;5542;48.272;10.794;2023-02-17T04:30:27;96442.22;;;8.95;49.65
10978;BME280;5542;48.272;10.794;2023-02-17T04:35:21;96450.72;;;9.04;49.88
10978;BME280;5542;48.272;10.794;2023-02-17T04:37:48;96454.94;;;8.98;50.09
10978;BME280;5542;48.272;10.794;2023-02-17T04:40:14;96452.31;;;8.98;50.57
10978;BME280;5542;48.272;10.794;2023-02-17T04:42:41;96453.72;;;8.94;50.12
10978;BME280;5542;48.272;10.794;2023-02-17T04:45:10;96459.19;;;8.93;50.29
10978;BME280;5542;48.272;10.794;2023-02-17T04:47:36;96455.50;;;8.87;50.85
10978;BME280;5542;48.272;10.794;2023-02-17T04:50:04;96455.34;;;8.95;50.96
10978;BME280;5542;48.272;10.794;2023-02-17T04:52:31;96457.38;;;9.00;51.76
10978;BME280;5542;48.272;10.794;2023-02-17T04:54:58;96452.72;;;8.95;51.75
10978;BME280;5542;48.272;10.794;2023-02-17T04:57:25;96445.66;;;8.89;52.18
10978;BME280;5542;48.272;10.794;2023-02-17T04:59:51;96452.31;;;8.85;52.78
10978;BME280;5542;48.272;10.794;2023-02-17T05:02:19;96447.47;;;8.89;52.39
10978;BME280;5542;48.272;10.794;2023-02-17T05:04:46;96444.25;;;8.93;52.78
10978;BME280;5542;48.272;10.794;2023-02-17T05:07:13;96439.97;;;8.92;52.50
10978;BME280;5542;48.272;10.794;2023-02-17T05:09:39;96445.22;;;8.86;53.13
10978;BME280;5542;48.272;10.794;2023-02-17T05:12:06;96445.44;;;8.84;53.03
10978;BME280;5542;48.272;10.794;2023-02-17T05:14:33;96436.75;;;8.90;53.08
10978;BME280;5542;48.272;10.794;2023-02-17T05:16:59;96443.63;;;8.91;52.77
10978;BME280;5542;48.272;10.794;2023-02-17T05:19:27;96431.91;;;8.87;52.91
10978;BME280;5542;48.272;10.794;2023-02-17T05:21:54;96447.47;;;8.95;52.54
10978;BME280;5542;48.272;10.794;2023-02-17T05:24:20;96443.22;;;8.94;53.05
10978;BME280;5542;48.272;10.794;2023-02-17T05:26:47;96441.41;;;8.95;53.28
10978;BME280;5542;48.272;10.794;2023-02-17T05:29:13;96437.97;;;9.01;53.48
10978;BME280;5542;48.272;10.794;2023-02-17T05:31:40;96448.28;;;9.03;53.71
10978;BME280;5542;48.272;10.794;2023-02-17T05:34:06;96453.72;;;9.01;54.62
10978;BME280;5542;48.272;10.794;2023-02-17T05:36:34;96451.09;;;9.01;53.69
10978;BME280;5542;48.272;10.794;2023-02-17T05:39:01;96453.72;;;8.94;54.00
10978;BME280;5542;48.272;10.794;2023-02-17T05:41:27;96442.59;;;8.92;53.95
10978;BME280;5542;48.272;10.794;2023-02-17T05:43:54;96445.47;;;9.04;53.77
10978;BME280;5542;48.272;10.794;2023-02-17T05:46:20;96448.69;;;9.00;53.72
10978;BME280;5542;48.272;10.794;2023-02-17T05:48:47;96447.06;;;9.05;53.21
10978;BME280;5542;48.272;10.794;2023-02-17T05:51:14;96447.88;;;9.06;53.03
10978;BME280;5542;48.272;10.794;2023-02-17T05:53:42;96451.09;;;8.94;53.27
10978;BME280;5542;48.272;10.794;2023-02-17T05:56:09;96450.31;;;9.07;52.93
10978;BME280;5542;48.272;10.794;2023-02-17T05:58:35;96451.94;;;9.08;52.69
10978;BME280;5542;48.272;10.794;2023-02-17T06:01:07;96454.31;;;8.96;53.03
10978;BME280;5542;48.272;10.794;2023-02-17T06:03:33;96453.09;;;8.92;53.42
10978;BME280;5542;48.272;10.794;2023-02-17T06:06:00;96450.91;;;9.03;53.38
10978;BME280;5542;48.272;10.794;2023-02-17T06:08:26;96465.22;;;9.07;53.03
10978;BME280;5542;48.272;10.794;2023-02-17T06:10:54;96464.63;;;9.05;54.50
10978;BME280;5542;48.272;10.794;2023-02-17T06:13:21;96467.06;;;9.00;54.68
10978;BME280;5542;48.272;10.794;2023-02-17T06:15:48;96463.41;;;9.01;55.47
10978;BME280;5542;48.272;10.794;2023-02-17T06:18:14;96455.38;;;9.02;54.97
10978;BME280;5542;48.272;10.794;2023-02-17T06:20:42;96453.53;;;9.03;54.76
10978;BME280;5542;48.272;10.794;2023-02-17T06:23:08;96461.81;;;9.00;54.19
10978;BME280;5542;48.272;10.794;2023-02-17T06:25:35;96462.00;;;8.91;54.77
10978;BME280;5542;48.272;10.794;2023-02-17T06:28:03;96468.03;;;8.92;54.40
10978;BME280;5542;48.272;10.794;2023-02-17T06:30:30;96465.66;;;9.04;54.29
10978;BME280;5542;48.272;10.794;2023-02-17T06:32:57;96459.78;;;8.88;55.12
10978;BME280;5542;48.272;10.794;2023-02-17T06:35:24;96456.94;;;8.96;54.47
10978;BME280;5542;48.272;10.794;2023-02-17T06:37:51;96458.78;;;9.09;53.92
10978;BME280;5542;48.272;10.794;2023-02-17T06:40:18;96466.44;;;9.04;54.15
10978;BME280;5542;48.272;10.794;2023-02-17T06:42:45;96462.22;;;9.10;53.93
10978;BME280;5542;48.272;10.794;2023-02-17T06:45:12;96457.16;;;9.02;54.16
10978;BME280;5542;48.272;10.794;2023-02-17T06:47:39;96456.34;;;8.94;54.28
10978;BME280;5542;48.272;10.794;2023-02-17T06:50:07;96456.75;;;8.98;54.59
10978;BME280;5542;48.272;10.794;2023-02-17T06:52:34;96469.06;;;8.97;54.49
10978;BME280;5542;48.272;10.794;2023-02-17T06:55:00;96463.63;;;9.06;54.44
10978;BME280;5542;48.272;10.794;2023-02-17T06:57:27;96461.22;;;8.97;54.17
10978;BME280;5542;48.272;10.794;2023-02-17T06:59:54;96468.44;;;8.95;54.68
10978;BME280;5542;48.272;10.794;2023-02-17T07:02:22;96472.91;;;8.95;54.54
10978;BME280;5542;48.272;10.794;2023-02-17T07:04:48;96473.72;;;9.02;54.85
10978;BME280;5542;48.272;10.794;2023-02-17T07:07:15;96475.72;;;9.00;54.91
10978;BME280;5542;48.272;10.794;2023-02-17T07:09:41;96477.34;;;8.94;55.12
10978;BME280;5542;48.272;10.794;2023-02-17T07:12:08;96482.00;;;8.99;56.64
10978;BME280;5542;48.272;10.794;2023-02-17T07:14:35;96467.84;;;8.93;56.96
10978;BME280;5542;48.272;10.794;2023-02-17T07:17:01;96474.50;;;8.89;57.01
10978;BME280;5542;48.272;10.794;2023-02-17T07:19:29;96469.66;;;8.86;57.03
10978;BME280;5542;48.272;10.794;2023-02-17T07:21:56;96472.47;;;8.91;56.50
10978;BME280;5542;48.272;10.794;2023-02-17T07:24:23;96477.13;;;8.89;56.38
10978;BME280;5542;48.272;10.794;2023-02-17T07:26:49;96474.50;;;8.89;56.59
10978;BME280;5542;48.272;10.794;2023-02-17T07:29:17;96477.94;;;8.96;56.58
10978;BME280;5542;48.272;10.794;2023-02-17T07:31:44;96485.81;;;8.96;56.92
10978;BME280;5542;48.272;10.794;2023-02-17T07:34:11;96477.34;;;8.94;56.63
10978;BME280;5542;48.272;10.794;2023-02-17T07:36:38;96469.47;;;8.94;57.08
10978;BME280;5542;48.272;10.794;2023-02-17T07:39:05;96466.84;;;9.01;56.70
10978;BME280;5542;48.272;10.794;2023-02-17T07:41:32;96464.63;;;8.98;57.71
10978;BME280;5542;48.272;10.794;2023-02-17T07:43:59;96478.16;;;9.02;57.89
10978;BME280;5542;48.272;10.794;2023-02-17T07:46:26;96482.00;;;9.06;57.52
10978;BME280;5542;48.272;10.794;2023-02-17T07:48:53;96477.78;;;9.18;57.19
10978;BME280;5542;48.272;10.794;2023-02-17T07:51:21;96487.03;;;9.20;56.74
10978;BME280;5542;48.272;10.794;2023-02-17T07:53:50;96483.22;;;9.23;56.70
10978;BME280;5542;48.272;10.794;2023-02-17T07:56:19;96479.78;;;9.29;56.15
10978;BME280;5542;48.272;10.794;2023-02-17T07:58:47;96474.94;;;9.33;56.11
10978;BME280;5542;48.272;10.794;2023-02-17T08:01:15;96483.25;;;9.36;56.50
10978;BME280;5542;48.272;10.794;2023-02-17T08:03:42;96479.59;;;9.31;58.50
10978;BME280;5542;48.272;10.794;2023-02-17T08:06:10;96490.50;;;9.34;57.26
10978;BME280;5542;48.272;10.794;2023-02-17T08:08:37;96483.44;;;9.21;58.12
10978;BME280;5542;48.272;10.794;2023-02-17T08:11:22;96494.31;;;9.25;58.92
10978;BME280;5542;48.272;10.794;2023-02-17T08:14:06;96489.47;;;9.29;60.81
10978;BME280;5542;48.272;10.794;2023-02-17T08:16:33;96499.59;;;9.32;60.79
10978;BME280;5542;48.272;10.794;2023-02-17T08:18:59;96474.75;;;9.21;60.83
10978;BME280;5542;48.272;10.794;2023-02-17T08:21:26;96482.63;;;9.28;61.16
10978;BME280;5542;48.272;10.794;2023-02-17T08:23:53;96499.38;;;9.27;61.13
10978;BME280;5542;48.272;10.794;2023-02-17T08:26:20;96506.03;;;9.29;61.68
10978;BME280;5542;48.272;10.794;2023-02-17T08:28:48;96494.53;;;9.30;62.35
10978;BME280;5542;48.272;10.794;2023-02-17T08:31:15;96494.75;;;9.29;63.11
10978;BME280;5542;48.272;10.794;2023-02-17T08:33:42;96502.81;;;9.34;62.75
10978;BME280;5542;48.272;10.794;2023-02-17T08:36:09;96496.75;;;9.33;63.07
10978;BME280;5542;48.272;10.794;2023-02-17T08:38:36;96511.09;;;9.37;63.34
10978;BME280;5542;48.272;10.794;2023-02-17T08:41:11;96516.56;;;9.42;63.31
10978;BME280;5542;48.272;10.794;2023-02-17T08:43:37;96521.00;;;9.35;63.42
10978;BME280;5542;48.272;10.794;2023-02-17T08:46:07;96514.72;;;9.43;63.24
10978;BME280;5542;48.272;10.794;2023-02-17T08:48:34;96513.31;;;9.54;63.03
10978;BME280;5542;48.272;10.794;2023-02-17T08:51:01;96512.72;;;9.58;62.69
10978;BME280;5542;48.272;10.794;2023-02-17T08:53:27;96518.59;;;9.60;62.00
10978;BME280;5542;48.272;10.794;2023-02-17T08:55:55;96500.19;;;9.73;61.65
10978;BME280;5542;48.272;10.794;2023-02-17T08:58:22;96511.91;;;9.71;61.00
10978;BME280;5542;48.272;10.794;2023-02-17T09:00:48;96515.75;;;9.75;60.72
10978;BME280;5542;48.272;10.794;2023-02-17T09:03:17;96524.22;;;9.77;60.90
10978;BME280;5542;48.272;10.794;2023-02-17T09:05:43;96522.59;;;9.89;59.79
10978;BME280;5542;48.272;10.794;2023-02-17T09:08:10;96518.56;;;9.87;59.73
10978;BME280;5542;48.272;10.794;2023-02-17T09:10:37;96519.59;;;9.92;58.88
10978;BME280;5542;48.272;10.794;2023-02-17T09:13:04;96519.97;;;9.96;58.70
10978;BME280;5542;48.272;10.794;2023-02-17T09:15:30;96517.31;;;9.96;58.32
10978;BME280;5542;48.272;10.794;2023-02-17T09:17:57;96511.09;;;9.97;57.91
10978;BME280;5542;48.272;10.794;2023-02-17T09:20:25;96518.97;;;9.90;58.27
10978;BME280;5542;48.272;10.794;2023-02-17T09:22:51;96536.34;;;9.85;59.52
10978;BME280;5542;48.272;10.794;2023-02-17T09:25:18;96534.09;;;10.08;58.07
10978;BME280;5542;48.272;10.794;2023-02-17T09:27:44;96525.38;;;10.14;58.54
10978;BME280;5542;48.272;10.794;2023-02-17T09:30:12;96528.81;;;10.21;57.58
10978;BME280;5542;48.272;10.794;2023-02-17T09:32:39;96524.38;;;10.22;58.30
10978;BME280;5542;48.272;10.794;2023-02-17T09:35:06;96528.03;;;10.21;57.90
10978;BME280;5542;48.272;10.794;2023-02-17T09:37:34;96529.03;;;10.27;58.25
10978;BME280;5542;48.272;10.794;2023-02-17T09:40:01;96531.81;;;10.38;58.12
10978;BME280;5542;48.272;10.794;2023-02-17T09:42:28;96535.34;;;10.70;56.62
10978;BME280;5542;48.272;10.794;2023-02-17T09:44:57;96537.31;;;10.88;55.97
10978;BME280;5542;48.272;10.794;2023-02-17T09:47:29;96524.72;;;10.97;56.05
10978;BME280;5542;48.272;10.794;2023-02-17T09:50:03;96540.59;;;11.15;55.78
10978;BME280;5542;48.272;10.794;2023-02-17T09:52:35;96541.19;;;11.17;55.47
10978;BME280;5542;48.272;10.794;2023-02-17T09:55:07;96544.81;;;11.23;55.21
10978;BME280;5542;48.272;10.794;2023-02-17T09:57:39;96537.84;;;11.35;54.93
10978;BME280;5542;48.272;10.794;2023-02-17T10:00:11;96542.66;;;11.45;55.02
10978;BME280;5542;48.272;10.794;2023-02-17T10:02:44;96534.09;;;11.49;54.65
10978;BME280;5542;48.272;10.794;2023-02-17T10:05:16;96533.03;;;11.57;54.47
10978;BME280;5542;48.272;10.794;2023-02-17T10:07:48;96527.28;;;11.67;53.96
10978;BME280;5542;48.272;10.794;2023-02-17T10:10:19;96534.91;;;11.75;53.52
10978;BME280;5542;48.272;10.794;2023-02-17T10:12:49;96530.06;;;11.72;53.66
10978;BME280;5542;48.272;10.794;2023-02-17T10:15:22;96510.72;;;11.85;53.49
10978;BME280;5542;48.272;10.794;2023-02-17T10:17:54;96505.19;;;11.93;53.97
10978;BME280;5542;48.272;10.794;2023-02-17T10:20:23;96528.72;;;12.13;52.57
10978;BME280;5542;48.272;10.794;2023-02-17T10:22:54;96500.94;;;11.92;53.58
10978;BME280;5542;48.272;10.794;2023-02-17T10:25:40;96518.94;;;11.95;53.25
10978;BME280;5542;48.272;10.794;2023-02-17T10:28:17;96522.47;;;11.89;53.91
10978;BME280;5542;48.272;10.794;2023-02-17T10:30:49;96508.41;;;11.95;53.65
10978;BME280;5542;48.272;10.794;2023-02-17T10:33:22;96525.63;;;11.97;54.27
10978;BME280;5542;48.272;10.794;2023-02-17T10:35:53;96528.41;;;12.02;54.03
10978;BME280;5542;48.272;10.794;2023-02-17T10:38:38;96521.53;;;12.20;53.72
10978;BME280;5542;48.272;10.794;2023-02-17T10:41:12;96518.84;;;12.26;53.54
10978;BME280;5542;48.272;10.794;2023-02-17T10:43:42;96509.09;;;12.27;53.49
10978;BME280;5542;48.272;10.794;2023-02-17T10:46:11;96505.72;;;12.38;54.11
10978;BME280;5542;48.272;10.794;2023-02-17T10:48:39;96513.44;;;12.58;52.99
10978;BME280;5542;48.272;10.794;2023-02-17T10:51:12;96510.09;;;12.63;52.72
10978;BME280;5542;48.272;10.794;2023-02-17T10:53:44;96501.47;;;12.55;52.81
10978;BME280;5542;48.272;10.794;2023-02-17T10:56:15;96512.91;;;12.49;53.20
10978;BME280;5542;48.272;10.794;2023-02-17T10:58:49;96512.03;;;12.55;53.81
10978;BME280;5542;48.272;10.794;2023-02-17T11:01:18;96510.28;;;12.68;53.35
10978;BME280;5542;48.272;10.794;2023-02-17T11:03:58;96519.66;;;12.64;52.99
10978;BME280;5542;48.272;10.794;2023-02-17T11:06:25;96513.44;;;12.58;53.79
10978;BME280;5542;48.272;10.794;2023-02-17T11:08:55;96517.69;;;12.59;54.04
10978;BME280;5542;48.272;10.794;2023-02-17T11:11:24;96512.84;;;12.56;54.24
10978;BME280;5542;48.272;10.794;2023-02-17T11:14:08;96512.91;;;12.49;54.25
10978;BME280;5542;48.272;10.794;2023-02-17T11:16:37;96497.94;;;12.62;53.94
10978;BME280;5542;48.272;10.794;2023-02-17T11:19:06;96501.06;;;12.40;54.17
10978;BME280;5542;48.272;10.794;2023-02-17T11:21:46;96493.50;;;12.44;54.44
10978;BME280;5542;48.272;10.794;2023-02-17T11:24:14;96498.94;;;12.49;54.10
10978;BME280;5542;48.272;10.794;2023-02-17T11:26:41;96492.53;;;12.56;53.52
10978;BME280;5542;48.272;10.794;2023-02-17T11:29:09;96483.00;;;12.37;53.79
10978;BME280;5542;48.272;10.794;2023-02-17T11:31:36;96496.88;;;12.33;53.69
10978;BME280;5542;48.272;10.794;2023-02-17T11:34:13;96480.97;;;12.21;54.42
10978;BME280;5542;48.272;10.794;2023-02-17T11:36:43;96490.88;;;12.25;54.26
10978;BME280;5542;48.272;10.794;2023-02-17T11:39:18;96485.22;;;12.22;54.72
10978;BME280;5542;48.272;10.794;2023-02-17T11:41:45;96475.34;;;12.36;54.67
10978;BME280;5542;48.272;10.794;2023-02-17T11:44:21;96468.28;;;12.29;54.36
10978;BME280;5542;48.272;10.794;2023-02-17T11:46:54;96465.59;;;12.36;54.22
10978;BME280;5542;48.272;10.794;2023-02-17T11:49:56;96469.16;;;12.42;53.72
10978;BME280;5542;48.272;10.794;2023-02-17T11:52:37;96461.84;;;12.25;54.16
10978;BME280;5542;48.272;10.794;2023-02-17T11:55:17;96462.38;;;12.16;55.34
10978;BME280;5542;48.272;10.794;2023-02-17T11:57:55;96459.38;;;12.12;55.04
10978;BME280;5542;48.272;10.794;2023-02-17T12:00:32;96469.63;;;12.02;55.84
10978;BME280;5542;48.272;10.794;2023-02-17T12:03:33;96467.19;;;12.19;55.19
10978;BME280;5542;48.272;10.794;2023-02-17T12:06:10;96468.06;;;12.13;55.99
10978;BME280;5542;48.272;10.794;2023-02-17T12:08:48;96457.38;;;12.08;56.62
10978;BME280;5542;48.272;10.794;2023-02-17T12:11:27;96463.47;;;12.08;56.79
10978;BME280;5542;48.272;10.794;2023-02-17T12:14:13;96466.47;;;12.12;56.70
10978;BME280;5542;48.272;10.794;2023-02-17T12:16:48;96455.97;;;12.05;57.34
10978;BME280;5542;48.272;10.794;2023-02-17T12:19:30;96464.25;;;12.09;57.79
10978;BME280;5542;48.272;10.794;2023-02-17T12:22:08;96458.84;;;12.22;57.23
10978;BME280;5542;48.272;10.794;2023-02-17T12:24:52;96457.00;;;12.22;57.21
10978;BME280;5542;48.272;10.794;2023-02-17T12:27:37;96459.88;;;12.39;57.23
10978;BME280;5542;48.272;10.794;2023-02-17T12:30:21;96455.22;;;12.53;57.15
10978;BME280;5542;48.272;10.794;2023-02-17T12:33:03;96445.03;;;12.56;56.85
10978;BME280;5542;48.272;10.794;2023-02-17T12:35:42;96442.53;;;12.62;56.24
10978;BME280;5542;48.272;10.794;2023-02-17T12:38:13;96447.22;;;12.60;56.38
10978;BME280;5542;48.272;10.794;2023-02-17T12:40:44;96445.63;;;12.59;57.10
10978;BME280;5542;48.272;10.794;2023-02-17T12:43:22;96458.44;;;12.55;56.94
10978;BME280;5542;48.272;10.794;2023-02-17T12:45:52;96447.25;;;12.41;57.74
10978;BME280;5542;48.272;10.794;2023-02-17T12:48:24;96460.59;;;12.46;58.03
10978;BME280;5542;48.272;10.794;2023-02-17T12:50:56;96453.84;;;12.32;57.97
10978;BME280;5542;48.272;10.794;2023-02-17T12:53:44;96464.84;;;12.29;58.60
10978;BME280;5542;48.272;10.794;2023-02-17T12:56:37;96458.50;;;12.48;58.39
10978;BME280;5542;48.272;10.794;2023-02-17T12:59:14;96457.50;;;12.49;58.10
10978;BME280;5542;48.272;10.794;2023-02-17T13:01:48;96454.94;;;12.24;58.49
10978;BME280;5542;48.272;10.794;2023-02-17T13:04:17;96442.88;;;12.17;59.04
10978;BME280;5542;48.272;10.794;2023-02-17T13:06:47;96453.94;;;12.07;59.16
10978;BME280;5542;48.272;10.794;2023-02-17T13:09:23;96463.75;;;12.18;59.22
10978;BME280;5542;48.272;10.794;2023-02-17T13:11:51;96454.75;;;12.26;59.08
10978;BME280;5542;48.272;10.794;2023-02-17T13:14:27;96453.47;;;12.28;59.32
10978;BME280;5542;48.272;10.794;2023-02-17T13:16:54;96453.72;;;12.27;58.55
10978;BME280;5542;48.272;10.794;2023-02-17T13:19:32;96444.91;;;12.15;58.98
10978;BME280;5542;48.272;10.794;2023-02-17T13:22:00;96446.91;;;12.19;59.91
10978;BME280;5542;48.272;10.794;2023-02-17T13:24:33;96449.69;;;12.24;59.31